[source: ADDS]
METAR
EDMA 191750Z 07004KT 040V100 9999 SCT037 13/08 Q1008 RMK ATIS ECH =
TAF
TAF EDMA 191400Z 1915/1920 07010KT 9999 BKN025 =
SR / SS: 04:19 / 18:15 UTC (Referenz EDMA 2014-04-19)
Start Wetter Info!

PostHeaderIcon Wetter Info!

Hallo liebe Piloten, hallo liebe Flugleiter,

unter diesem Link könnt ihr die Lande- und Windrichtung sehen, der Wind wird alle 30 Sekunden neu abgerufen.

Windmessgerät

Aktuelle Wetter Nachrichten und Informationen rund um Giengen.

Niederschlagsradar.de

 

DWD Wettermodul Augsburg

Aktuell Morgen21.04.1422.04.14
-
- °C -- °C -- °C -- °C
-
Luftdruck: - hPa
Niederschlag: - mm
Windrichtung: -
Geschwindigkeit: - km/h
Windböen: - km/h
© Deutscher Wetterdienst | Ferienhaus Ostsee